sensor_id;sensor_type;location;lat;lon;timestamp;P1;durP1;ratioP1;P2;durP2;ratioP2
19448;SDS011;9863;49.404;8.246;2022-10-18T00:01:11;653.72;;;600.60;;
19448;SDS011;9863;49.404;8.246;2022-10-18T00:03:59;652.92;;;600.40;;
19448;SDS011;9863;49.404;8.246;2022-10-18T00:06:47;650.88;;;597.90;;
19448;SDS011;9863;49.404;8.246;2022-10-18T00:09:36;644.90;;;593.33;;
19448;SDS011;9863;49.404;8.246;2022-10-18T00:12:24;647.35;;;594.80;;
19448;SDS011;9863;49.404;8.246;2022-10-18T00:15:12;653.92;;;600.92;;
19448;SDS011;9863;49.404;8.246;2022-10-18T00:18:01;651.63;;;598.58;;
19448;SDS011;9863;49.404;8.246;2022-10-18T00:20:59;653.40;;;600.40;;
19448;SDS011;9863;49.404;8.246;2022-10-18T00:24:03;643.65;;;590.88;;
19448;SDS011;9863;49.404;8.246;2022-10-18T00:26:52;647.85;;;594.78;;
19448;SDS011;9863;49.404;8.246;2022-10-18T00:29:40;653.22;;;600.13;;
19448;SDS011;9863;49.404;8.246;2022-10-18T00:32:28;652.78;;;599.88;;
19448;SDS011;9863;49.404;8.246;2022-10-18T00:35:17;642.30;;;590.00;;
19448;SDS011;9863;49.404;8.246;2022-10-18T00:38:06;635.83;;;584.78;;
19448;SDS011;9863;49.404;8.246;2022-10-18T00:40:54;645.70;;;593.13;;
19448;SDS011;9863;49.404;8.246;2022-10-18T00:46:46;652.20;;;597.45;;
19448;SDS011;9863;49.404;8.246;2022-10-18T00:49:38;638.63;;;585.97;;
19448;SDS011;9863;49.404;8.246;2022-10-18T00:52:33;642.25;;;589.65;;
19448;SDS011;9863;49.404;8.246;2022-10-18T00:55:29;642.83;;;590.08;;
19448;SDS011;9863;49.404;8.246;2022-10-18T00:58:19;635.92;;;583.65;;
19448;SDS011;9863;49.404;8.246;2022-10-18T01:01:07;634.53;;;583.25;;
19448;SDS011;9863;49.404;8.246;2022-10-18T01:03:55;642.38;;;589.63;;
19448;SDS011;9863;49.404;8.246;2022-10-18T01:06:48;644.85;;;592.42;;
19448;SDS011;9863;49.404;8.246;2022-10-18T01:16:42;635.40;;;583.03;;
19448;SDS011;9863;49.404;8.246;2022-10-18T01:36:36;637.10;;;584.30;;
19448;SDS011;9863;49.404;8.246;2022-10-18T01:39:30;638.33;;;585.53;;
19448;SDS011;9863;49.404;8.246;2022-10-18T01:42:23;635.08;;;583.17;;
19448;SDS011;9863;49.404;8.246;2022-10-18T01:45:12;640.38;;;588.53;;
19448;SDS011;9863;49.404;8.246;2022-10-18T01:48:02;639.33;;;587.58;;
19448;SDS011;9863;49.404;8.246;2022-10-18T01:50:51;640.30;;;587.95;;
19448;SDS011;9863;49.404;8.246;2022-10-18T01:53:40;640.88;;;588.28;;
19448;SDS011;9863;49.404;8.246;2022-10-18T02:00:00;669.05;;;611.22;;
19448;SDS011;9863;49.404;8.246;2022-10-18T02:06:17;626.78;;;574.28;;
19448;SDS011;9863;49.404;8.246;2022-10-18T02:09:13;631.05;;;578.88;;
19448;SDS011;9863;49.404;8.246;2022-10-18T02:12:15;633.15;;;580.58;;
19448;SDS011;9863;49.404;8.246;2022-10-18T02:15:05;628.75;;;576.78;;
19448;SDS011;9863;49.404;8.246;2022-10-18T02:17:56;642.63;;;589.80;;
19448;SDS011;9863;49.404;8.246;2022-10-18T02:20:44;634.58;;;582.35;;
19448;SDS011;9863;49.404;8.246;2022-10-18T02:23:34;641.65;;;588.85;;
19448;SDS011;9863;49.404;8.246;2022-10-18T02:26:23;638.88;;;585.72;;
19448;SDS011;9863;49.404;8.246;2022-10-18T02:29:11;634.20;;;581.67;;
19448;SDS011;9863;49.404;8.246;2022-10-18T02:32:05;637.05;;;584.25;;
19448;SDS011;9863;49.404;8.246;2022-10-18T02:35:39;623.50;;;571.38;;
19448;SDS011;9863;49.404;8.246;2022-10-18T02:38:22;627.47;;;574.83;;
19448;SDS011;9863;49.404;8.246;2022-10-18T02:41:20;625.72;;;573.20;;
19448;SDS011;9863;49.404;8.246;2022-10-18T02:44:13;630.72;;;578.05;;
19448;SDS011;9863;49.404;8.246;2022-10-18T02:47:01;621.75;;;569.05;;
19448;SDS011;9863;49.404;8.246;2022-10-18T02:49:51;626.80;;;573.88;;
19448;SDS011;9863;49.404;8.246;2022-10-18T02:52:39;629.08;;;576.35;;
19448;SDS011;9863;49.404;8.246;2022-10-18T02:55:28;623.05;;;570.47;;
19448;SDS011;9863;49.404;8.246;2022-10-18T02:58:16;626.45;;;573.92;;
19448;SDS011;9863;49.404;8.246;2022-10-18T03:01:05;624.13;;;572.40;;
19448;SDS011;9863;49.404;8.246;2022-10-18T03:03:53;622.92;;;571.00;;
19448;SDS011;9863;49.404;8.246;2022-10-18T03:06:42;625.10;;;572.83;;
19448;SDS011;9863;49.404;8.246;2022-10-18T03:09:30;626.78;;;574.45;;
19448;SDS011;9863;49.404;8.246;2022-10-18T03:12:18;623.25;;;570.78;;
19448;SDS011;9863;49.404;8.246;2022-10-18T03:15:07;632.63;;;579.60;;
19448;SDS011;9863;49.404;8.246;2022-10-18T03:17:55;630.67;;;577.55;;
19448;SDS011;9863;49.404;8.246;2022-10-18T03:20:43;628.15;;;575.13;;
19448;SDS011;9863;49.404;8.246;2022-10-18T03:23:32;627.22;;;574.42;;
19448;SDS011;9863;49.404;8.246;2022-10-18T03:26:20;624.45;;;571.75;;
19448;SDS011;9863;49.404;8.246;2022-10-18T03:29:09;622.85;;;571.00;;
19448;SDS011;9863;49.404;8.246;2022-10-18T03:31:57;621.17;;;568.72;;
19448;SDS011;9863;49.404;8.246;2022-10-18T03:34:46;624.22;;;571.40;;
19448;SDS011;9863;49.404;8.246;2022-10-18T03:37:34;616.42;;;565.25;;
19448;SDS011;9863;49.404;8.246;2022-10-18T03:40:23;609.38;;;556.92;;
19448;SDS011;9863;49.404;8.246;2022-10-18T03:43:11;612.85;;;560.30;;
19448;SDS011;9863;49.404;8.246;2022-10-18T03:46:00;623.58;;;569.20;;
19448;SDS011;9863;49.404;8.246;2022-10-18T03:48:48;617.97;;;565.55;;
19448;SDS011;9863;49.404;8.246;2022-10-18T03:51:36;609.92;;;557.97;;
19448;SDS011;9863;49.404;8.246;2022-10-18T03:54:25;609.80;;;557.92;;
19448;SDS011;9863;49.404;8.246;2022-10-18T03:57:13;601.38;;;549.38;;
19448;SDS011;9863;49.404;8.246;2022-10-18T04:00:02;605.50;;;553.50;;
19448;SDS011;9863;49.404;8.246;2022-10-18T04:02:58;602.60;;;550.78;;
19448;SDS011;9863;49.404;8.246;2022-10-18T04:05:46;608.70;;;556.17;;
19448;SDS011;9863;49.404;8.246;2022-10-18T04:08:36;605.25;;;553.13;;
19448;SDS011;9863;49.404;8.246;2022-10-18T04:11:24;603.75;;;551.67;;
19448;SDS011;9863;49.404;8.246;2022-10-18T04:14:12;601.92;;;550.17;;
19448;SDS011;9863;49.404;8.246;2022-10-18T04:17:01;607.22;;;554.95;;
19448;SDS011;9863;49.404;8.246;2022-10-18T04:19:51;601.28;;;549.63;;
19448;SDS011;9863;49.404;8.246;2022-10-18T04:22:39;596.10;;;545.55;;
19448;SDS011;9863;49.404;8.246;2022-10-18T04:25:27;601.30;;;549.63;;
19448;SDS011;9863;49.404;8.246;2022-10-18T04:28:16;611.63;;;559.63;;
19448;SDS011;9863;49.404;8.246;2022-10-18T04:31:05;607.10;;;556.35;;
19448;SDS011;9863;49.404;8.246;2022-10-18T04:33:53;608.95;;;557.70;;
19448;SDS011;9863;49.404;8.246;2022-10-18T04:36:41;617.28;;;565.05;;
19448;SDS011;9863;49.404;8.246;2022-10-18T04:39:30;608.38;;;556.65;;
19448;SDS011;9863;49.404;8.246;2022-10-18T04:42:18;613.25;;;561.10;;
19448;SDS011;9863;49.404;8.246;2022-10-18T04:45:07;609.45;;;557.95;;
19448;SDS011;9863;49.404;8.246;2022-10-18T04:47:55;620.00;;;568.15;;
19448;SDS011;9863;49.404;8.246;2022-10-18T04:50:46;628.60;;;574.35;;
19448;SDS011;9863;49.404;8.246;2022-10-18T04:53:36;613.97;;;561.97;;
19448;SDS011;9863;49.404;8.246;2022-10-18T04:56:24;615.95;;;564.60;;
19448;SDS011;9863;49.404;8.246;2022-10-18T04:59:12;622.75;;;570.85;;
19448;SDS011;9863;49.404;8.246;2022-10-18T05:02:00;614.45;;;562.78;;
19448;SDS011;9863;49.404;8.246;2022-10-18T05:04:54;617.20;;;564.78;;
19448;SDS011;9863;49.404;8.246;2022-10-18T05:07:43;616.40;;;564.50;;
19448;SDS011;9863;49.404;8.246;2022-10-18T05:10:31;616.60;;;564.70;;
19448;SDS011;9863;49.404;8.246;2022-10-18T05:13:20;616.25;;;564.38;;
19448;SDS011;9863;49.404;8.246;2022-10-18T05:16:08;614.42;;;562.63;;
19448;SDS011;9863;49.404;8.246;2022-10-18T05:18:57;616.15;;;565.03;;
19448;SDS011;9863;49.404;8.246;2022-10-18T05:21:45;608.30;;;557.60;;
19448;SDS011;9863;49.404;8.246;2022-10-18T05:24:33;615.20;;;563.55;;
19448;SDS011;9863;49.404;8.246;2022-10-18T05:27:21;623.17;;;570.90;;
19448;SDS011;9863;49.404;8.246;2022-10-18T05:30:10;629.10;;;576.75;;
19448;SDS011;9863;49.404;8.246;2022-10-18T05:32:58;628.45;;;576.30;;
19448;SDS011;9863;49.404;8.246;2022-10-18T05:35:47;625.38;;;574.47;;
19448;SDS011;9863;49.404;8.246;2022-10-18T05:38:39;629.33;;;577.42;;
19448;SDS011;9863;49.404;8.246;2022-10-18T05:41:31;625.55;;;573.40;;
19448;SDS011;9863;49.404;8.246;2022-10-18T05:44:20;631.20;;;578.00;;
19448;SDS011;9863;49.404;8.246;2022-10-18T05:47:08;632.72;;;580.15;;
19448;SDS011;9863;49.404;8.246;2022-10-18T05:49:56;631.83;;;579.45;;
19448;SDS011;9863;49.404;8.246;2022-10-18T05:52:45;636.35;;;583.60;;
19448;SDS011;9863;49.404;8.246;2022-10-18T05:55:33;629.25;;;576.70;;
19448;SDS011;9863;49.404;8.246;2022-10-18T05:58:21;620.50;;;569.97;;
19448;SDS011;9863;49.404;8.246;2022-10-18T06:01:09;633.20;;;580.63;;
19448;SDS011;9863;49.404;8.246;2022-10-18T06:03:58;634.78;;;581.55;;
19448;SDS011;9863;49.404;8.246;2022-10-18T06:06:46;632.40;;;580.17;;
19448;SDS011;9863;49.404;8.246;2022-10-18T06:09:35;636.85;;;584.30;;
19448;SDS011;9863;49.404;8.246;2022-10-18T06:12:23;633.92;;;580.40;;
19448;SDS011;9863;49.404;8.246;2022-10-18T06:15:11;620.63;;;569.63;;
19448;SDS011;9863;49.404;8.246;2022-10-18T06:18:00;641.22;;;586.88;;
19448;SDS011;9863;49.404;8.246;2022-10-18T06:20:48;624.65;;;572.28;;
19448;SDS011;9863;49.404;8.246;2022-10-18T06:23:42;621.83;;;570.65;;
19448;SDS011;9863;49.404;8.246;2022-10-18T06:26:34;629.83;;;577.42;;
19448;SDS011;9863;49.404;8.246;2022-10-18T06:29:22;631.53;;;579.28;;
19448;SDS011;9863;49.404;8.246;2022-10-18T06:32:10;630.97;;;578.45;;
19448;SDS011;9863;49.404;8.246;2022-10-18T06:34:58;632.67;;;579.97;;
19448;SDS011;9863;49.404;8.246;2022-10-18T06:37:46;641.90;;;587.58;;
19448;SDS011;9863;49.404;8.246;2022-10-18T06:40:35;635.03;;;582.15;;
19448;SDS011;9863;49.404;8.246;2022-10-18T06:43:24;635.33;;;582.55;;
19448;SDS011;9863;49.404;8.246;2022-10-18T06:46:13;626.58;;;574.05;;
19448;SDS011;9863;49.404;8.246;2022-10-18T06:49:01;632.60;;;580.03;;
19448;SDS011;9863;49.404;8.246;2022-10-18T06:51:49;641.15;;;588.45;;
19448;SDS011;9863;49.404;8.246;2022-10-18T06:54:40;636.95;;;584.33;;
19448;SDS011;9863;49.404;8.246;2022-10-18T06:57:31;632.67;;;580.30;;
19448;SDS011;9863;49.404;8.246;2022-10-18T07:00:19;635.05;;;582.08;;
19448;SDS011;9863;49.404;8.246;2022-10-18T07:03:08;635.88;;;582.95;;
19448;SDS011;9863;49.404;8.246;2022-10-18T07:05:59;634.83;;;583.03;;
19448;SDS011;9863;49.404;8.246;2022-10-18T07:08:49;661.58;;;607.90;;
19448;SDS011;9863;49.404;8.246;2022-10-18T07:11:41;675.65;;;622.08;;
19448;SDS011;9863;49.404;8.246;2022-10-18T07:14:29;634.33;;;582.55;;
19448;SDS011;9863;49.404;8.246;2022-10-18T07:17:17;635.33;;;583.38;;
19448;SDS011;9863;49.404;8.246;2022-10-18T07:20:06;673.85;;;620.00;;
19448;SDS011;9863;49.404;8.246;2022-10-18T07:22:55;643.22;;;590.92;;
19448;SDS011;9863;49.404;8.246;2022-10-18T07:25:43;647.67;;;594.88;;
19448;SDS011;9863;49.404;8.246;2022-10-18T07:28:31;647.40;;;594.53;;
19448;SDS011;9863;49.404;8.246;2022-10-18T07:31:20;645.38;;;592.72;;
19448;SDS011;9863;49.404;8.246;2022-10-18T07:34:09;679.80;;;625.80;;
19448;SDS011;9863;49.404;8.246;2022-10-18T07:37:00;662.55;;;609.60;;
19448;SDS011;9863;49.404;8.246;2022-10-18T07:39:48;663.10;;;610.47;;
19448;SDS011;9863;49.404;8.246;2022-10-18T07:42:37;657.80;;;605.97;;
19448;SDS011;9863;49.404;8.246;2022-10-18T07:45:25;667.05;;;612.17;;
19448;SDS011;9863;49.404;8.246;2022-10-18T07:48:14;669.80;;;617.55;;
19448;SDS011;9863;49.404;8.246;2022-10-18T07:51:02;672.45;;;619.83;;
19448;SDS011;9863;49.404;8.246;2022-10-18T07:53:52;728.13;;;672.80;;
19448;SDS011;9863;49.404;8.246;2022-10-18T07:56:41;678.67;;;625.72;;
19448;SDS011;9863;49.404;8.246;2022-10-18T07:59:29;722.47;;;667.97;;
19448;SDS011;9863;49.404;8.246;2022-10-18T08:02:18;728.10;;;673.25;;
19448;SDS011;9863;49.404;8.246;2022-10-18T08:05:06;691.35;;;638.42;;
19448;SDS011;9863;49.404;8.246;2022-10-18T08:07:55;724.30;;;672.00;;
19448;SDS011;9863;49.404;8.246;2022-10-18T08:10:43;699.92;;;647.45;;
19448;SDS011;9863;49.404;8.246;2022-10-18T08:13:31;739.78;;;684.95;;
19448;SDS011;9863;49.404;8.246;2022-10-18T08:16:21;717.13;;;664.42;;
19448;SDS011;9863;49.404;8.246;2022-10-18T08:19:13;721.80;;;669.13;;
19448;SDS011;9863;49.404;8.246;2022-10-18T08:22:01;712.45;;;661.40;;
19448;SDS011;9863;49.404;8.246;2022-10-18T08:24:49;736.72;;;682.53;;
19448;SDS011;9863;49.404;8.246;2022-10-18T08:27:37;738.13;;;685.22;;
19448;SDS011;9863;49.404;8.246;2022-10-18T08:30:25;779.65;;;723.65;;
19448;SDS011;9863;49.404;8.246;2022-10-18T08:33:13;740.40;;;688.05;;
19448;SDS011;9863;49.404;8.246;2022-10-18T08:36:02;741.70;;;689.40;;
19448;SDS011;9863;49.404;8.246;2022-10-18T08:38:53;743.95;;;692.10;;
19448;SDS011;9863;49.404;8.246;2022-10-18T08:44:45;751.05;;;698.83;;
19448;SDS011;9863;49.404;8.246;2022-10-18T08:47:36;753.97;;;701.92;;
19448;SDS011;9863;49.404;8.246;2022-10-18T08:50:33;768.75;;;715.85;;
19448;SDS011;9863;49.404;8.246;2022-10-18T08:53:39;764.80;;;713.88;;
19448;SDS011;9863;49.404;8.246;2022-10-18T08:56:57;760.90;;;710.97;;
19448;SDS011;9863;49.404;8.246;2022-10-18T08:59:48;820.05;;;763.80;;
19448;SDS011;9863;49.404;8.246;2022-10-18T09:06:48;773.58;;;722.25;;
19448;SDS011;9863;49.404;8.246;2022-10-18T09:15:53;811.90;;;758.90;;
19448;SDS011;9863;49.404;8.246;2022-10-18T09:22:17;816.05;;;762.13;;
19448;SDS011;9863;49.404;8.246;2022-10-18T09:25:10;823.80;;;770.75;;
19448;SDS011;9863;49.404;8.246;2022-10-18T09:28:15;834.03;;;781.13;;
19448;SDS011;9863;49.404;8.246;2022-10-18T09:37:31;845.22;;;791.53;;
19448;SDS011;9863;49.404;8.246;2022-10-18T09:40:25;856.28;;;802.40;;
19448;SDS011;9863;49.404;8.246;2022-10-18T09:43:37;861.40;;;808.22;;
19448;SDS011;9863;49.404;8.246;2022-10-18T09:47:12;868.83;;;814.70;;
19448;SDS011;9863;49.404;8.246;2022-10-18T09:56:45;870.75;;;819.67;;
19448;SDS011;9863;49.404;8.246;2022-10-18T09:59:56;874.60;;;822.58;;
19448;SDS011;9863;49.404;8.246;2022-10-18T10:02:45;876.38;;;824.00;;
19448;SDS011;9863;49.404;8.246;2022-10-18T10:05:33;880.17;;;826.80;;
19448;SDS011;9863;49.404;8.246;2022-10-18T10:08:27;880.58;;;826.40;;
19448;SDS011;9863;49.404;8.246;2022-10-18T10:11:31;879.05;;;827.08;;
19448;SDS011;9863;49.404;8.246;2022-10-18T10:14:21;893.95;;;839.90;;
19448;SDS011;9863;49.404;8.246;2022-10-18T10:17:20;887.63;;;833.80;;
19448;SDS011;9863;49.404;8.246;2022-10-18T10:20:22;892.30;;;837.42;;
19448;SDS011;9863;49.404;8.246;2022-10-18T10:26:27;905.30;;;851.10;;
19448;SDS011;9863;49.404;8.246;2022-10-18T10:32:43;904.15;;;849.28;;
19448;SDS011;9863;49.404;8.246;2022-10-18T10:35:35;902.83;;;849.60;;
19448;SDS011;9863;49.404;8.246;2022-10-18T10:38:40;906.25;;;852.30;;
19448;SDS011;9863;49.404;8.246;2022-10-18T10:41:28;912.20;;;858.42;;
19448;SDS011;9863;49.404;8.246;2022-10-18T10:44:22;915.35;;;861.78;;
19448;SDS011;9863;49.404;8.246;2022-10-18T10:47:26;914.08;;;860.35;;
19448;SDS011;9863;49.404;8.246;2022-10-18T10:50:23;919.47;;;866.05;;
19448;SDS011;9863;49.404;8.246;2022-10-18T10:53:31;916.60;;;864.05;;
19448;SDS011;9863;49.404;8.246;2022-10-18T10:56:24;922.75;;;870.42;;
19448;SDS011;9863;49.404;8.246;2022-10-18T10:59:16;927.97;;;875.67;;
19448;SDS011;9863;49.404;8.246;2022-10-18T11:05:15;932.80;;;879.17;;
19448;SDS011;9863;49.404;8.246;2022-10-18T11:08:17;920.63;;;869.35;;
19448;SDS011;9863;49.404;8.246;2022-10-18T11:14:15;910.28;;;860.38;;
19448;SDS011;9863;49.404;8.246;2022-10-18T11:17:26;927.28;;;874.72;;
19448;SDS011;9863;49.404;8.246;2022-10-18T11:23:12;916.88;;;865.47;;
19448;SDS011;9863;49.404;8.246;2022-10-18T11:36:08;907.25;;;856.95;;
19448;SDS011;9863;49.404;8.246;2022-10-18T11:42:01;905.28;;;854.92;;
19448;SDS011;9863;49.404;8.246;2022-10-18T12:05:08;897.70;;;848.50;;
19448;SDS011;9863;49.404;8.246;2022-10-18T12:08:12;893.35;;;844.40;;
19448;SDS011;9863;49.404;8.246;2022-10-18T12:11:16;903.15;;;852.35;;
19448;SDS011;9863;49.404;8.246;2022-10-18T12:14:21;896.80;;;847.20;;
19448;SDS011;9863;49.404;8.246;2022-10-18T12:17:34;891.75;;;842.95;;
19448;SDS011;9863;49.404;8.246;2022-10-18T12:20:42;879.13;;;830.80;;
19448;SDS011;9863;49.404;8.246;2022-10-18T12:23:37;885.45;;;838.28;;
19448;SDS011;9863;49.404;8.246;2022-10-18T12:26:32;892.72;;;843.95;;
19448;SDS011;9863;49.404;8.246;2022-10-18T12:32:36;895.05;;;844.75;;
19448;SDS011;9863;49.404;8.246;2022-10-18T12:35:26;893.20;;;844.28;;
19448;SDS011;9863;49.404;8.246;2022-10-18T12:38:24;892.40;;;843.40;;
19448;SDS011;9863;49.404;8.246;2022-10-18T12:41:21;901.53;;;852.25;;
19448;SDS011;9863;49.404;8.246;2022-10-18T12:44:18;910.20;;;860.15;;
19448;SDS011;9863;49.404;8.246;2022-10-18T12:47:22;901.25;;;851.80;;
19448;SDS011;9863;49.404;8.246;2022-10-18T12:53:24;886.38;;;837.63;;
19448;SDS011;9863;49.404;8.246;2022-10-18T13:04:54;913.63;;;863.30;;
19448;SDS011;9863;49.404;8.246;2022-10-18T13:07:43;920.78;;;870.22;;
19448;SDS011;9863;49.404;8.246;2022-10-18T13:10:33;922.70;;;871.92;;
19448;SDS011;9863;49.404;8.246;2022-10-18T13:36:22;929.78;;;877.70;;
19448;SDS011;9863;49.404;8.246;2022-10-18T13:39:17;934.60;;;882.47;;
19448;SDS011;9863;49.404;8.246;2022-10-18T13:58:39;922.08;;;871.03;;
19448;SDS011;9863;49.404;8.246;2022-10-18T14:12:22;917.85;;;866.95;;
19448;SDS011;9863;49.404;8.246;2022-10-18T14:15:30;903.85;;;854.28;;
19448;SDS011;9863;49.404;8.246;2022-10-18T14:18:33;904.17;;;854.65;;
19448;SDS011;9863;49.404;8.246;2022-10-18T14:21:23;908.50;;;859.45;;
19448;SDS011;9863;49.404;8.246;2022-10-18T14:24:22;916.15;;;865.95;;
19448;SDS011;9863;49.404;8.246;2022-10-18T14:33:21;910.65;;;860.50;;
19448;SDS011;9863;49.404;8.246;2022-10-18T14:36:22;904.33;;;854.95;;
19448;SDS011;9863;49.404;8.246;2022-10-18T14:39:21;910.40;;;860.75;;
19448;SDS011;9863;49.404;8.246;2022-10-18T14:42:20;903.78;;;854.65;;
19448;SDS011;9863;49.404;8.246;2022-10-18T14:45:16;910.10;;;860.17;;
19448;SDS011;9863;49.404;8.246;2022-10-18T14:48:12;900.30;;;851.15;;
19448;SDS011;9863;49.404;8.246;2022-10-18T14:51:03;887.80;;;839.45;;
19448;SDS011;9863;49.404;8.246;2022-10-18T14:53:56;882.83;;;834.58;;
19448;SDS011;9863;49.404;8.246;2022-10-18T14:56:44;896.67;;;847.75;;
19448;SDS011;9863;49.404;8.246;2022-10-18T14:59:36;890.55;;;841.78;;
19448;SDS011;9863;49.404;8.246;2022-10-18T15:02:36;878.20;;;830.20;;
19448;SDS011;9863;49.404;8.246;2022-10-18T15:05:25;865.75;;;818.33;;
19448;SDS011;9863;49.404;8.246;2022-10-18T15:08:13;862.58;;;815.65;;
19448;SDS011;9863;49.404;8.246;2022-10-18T15:11:01;883.38;;;832.47;;
19448;SDS011;9863;49.404;8.246;2022-10-18T15:13:54;867.63;;;820.33;;
19448;SDS011;9863;49.404;8.246;2022-10-18T15:16:49;873.72;;;825.70;;
19448;SDS011;9863;49.404;8.246;2022-10-18T15:19:55;876.50;;;826.75;;
19448;SDS011;9863;49.404;8.246;2022-10-18T15:22:52;859.30;;;813.08;;
19448;SDS011;9863;49.404;8.246;2022-10-18T15:25:41;875.92;;;827.30;;
19448;SDS011;9863;49.404;8.246;2022-10-18T15:28:30;874.83;;;826.58;;
19448;SDS011;9863;49.404;8.246;2022-10-18T15:31:26;867.85;;;820.08;;
19448;SDS011;9863;49.404;8.246;2022-10-18T15:34:17;865.70;;;818.08;;
19448;SDS011;9863;49.404;8.246;2022-10-18T15:37:16;858.17;;;810.92;;
19448;SDS011;9863;49.404;8.246;2022-10-18T15:40:33;863.20;;;814.25;;
19448;SDS011;9863;49.404;8.246;2022-10-18T15:46:30;852.78;;;804.60;;
19448;SDS011;9863;49.404;8.246;2022-10-18T15:52:41;830.10;;;784.40;;
19448;SDS011;9863;49.404;8.246;2022-10-18T15:58:19;820.05;;;773.97;;
19448;SDS011;9863;49.404;8.246;2022-10-18T16:01:15;821.13;;;775.38;;
19448;SDS011;9863;49.404;8.246;2022-10-18T16:07:16;817.58;;;771.75;;
19448;SDS011;9863;49.404;8.246;2022-10-18T16:10:11;810.70;;;765.40;;
19448;SDS011;9863;49.404;8.246;2022-10-18T16:13:00;812.50;;;766.45;;
19448;SDS011;9863;49.404;8.246;2022-10-18T16:15:48;803.60;;;758.85;;
19448;SDS011;9863;49.404;8.246;2022-10-18T16:18:37;809.58;;;764.08;;
19448;SDS011;9863;49.404;8.246;2022-10-18T16:21:27;809.17;;;763.35;;
19448;SDS011;9863;49.404;8.246;2022-10-18T16:24:19;799.28;;;752.97;;
19448;SDS011;9863;49.404;8.246;2022-10-18T16:27:08;805.90;;;759.88;;
19448;SDS011;9863;49.404;8.246;2022-10-18T16:29:57;798.17;;;752.08;;
19448;SDS011;9863;49.404;8.246;2022-10-18T16:32:45;799.35;;;753.05;;
19448;SDS011;9863;49.404;8.246;2022-10-18T16:35:35;801.67;;;756.17;;
19448;SDS011;9863;49.404;8.246;2022-10-18T16:38:28;796.58;;;750.30;;
19448;SDS011;9863;49.404;8.246;2022-10-18T16:41:21;800.25;;;754.45;;
19448;SDS011;9863;49.404;8.246;2022-10-18T16:44:10;795.08;;;748.65;;
19448;SDS011;9863;49.404;8.246;2022-10-18T16:46:59;787.80;;;742.90;;
19448;SDS011;9863;49.404;8.246;2022-10-18T16:49:47;782.15;;;737.53;;
19448;SDS011;9863;49.404;8.246;2022-10-18T16:52:36;780.63;;;736.47;;
19448;SDS011;9863;49.404;8.246;2022-10-18T16:55:24;784.70;;;740.15;;
19448;SDS011;9863;49.404;8.246;2022-10-18T16:58:13;779.40;;;734.60;;
19448;SDS011;9863;49.404;8.246;2022-10-18T17:01:04;794.13;;;746.05;;
19448;SDS011;9863;49.404;8.246;2022-10-18T17:03:55;769.45;;;725.50;;
19448;SDS011;9863;49.404;8.246;2022-10-18T17:06:43;774.60;;;730.10;;
19448;SDS011;9863;49.404;8.246;2022-10-18T17:09:31;771.15;;;727.10;;
19448;SDS011;9863;49.404;8.246;2022-10-18T17:12:21;764.88;;;721.60;;
19448;SDS011;9863;49.404;8.246;2022-10-18T17:15:09;767.20;;;723.50;;
19448;SDS011;9863;49.404;8.246;2022-10-18T17:17:59;764.78;;;721.65;;
19448;SDS011;9863;49.404;8.246;2022-10-18T17:20:48;768.47;;;724.88;;
19448;SDS011;9863;49.404;8.246;2022-10-18T17:23:36;764.33;;;721.38;;
19448;SDS011;9863;49.404;8.246;2022-10-18T17:26:25;760.63;;;717.70;;
19448;SDS011;9863;49.404;8.246;2022-10-18T17:29:16;758.63;;;715.53;;
19448;SDS011;9863;49.404;8.246;2022-10-18T17:32:04;762.88;;;720.05;;
19448;SDS011;9863;49.404;8.246;2022-10-18T17:34:52;758.65;;;715.63;;
19448;SDS011;9863;49.404;8.246;2022-10-18T17:37:40;759.08;;;716.28;;
19448;SDS011;9863;49.404;8.246;2022-10-18T17:40:32;746.83;;;704.58;;
19448;SDS011;9863;49.404;8.246;2022-10-18T17:43:21;753.53;;;711.35;;
19448;SDS011;9863;49.404;8.246;2022-10-18T17:46:09;752.50;;;709.35;;
19448;SDS011;9863;49.404;8.246;2022-10-18T17:49:00;755.20;;;712.42;;
19448;SDS011;9863;49.404;8.246;2022-10-18T17:51:48;751.65;;;708.97;;
19448;SDS011;9863;49.404;8.246;2022-10-18T17:54:36;749.10;;;706.80;;
19448;SDS011;9863;49.404;8.246;2022-10-18T17:57:24;755.10;;;711.53;;
19448;SDS011;9863;49.404;8.246;2022-10-18T18:00:13;725.22;;;685.22;;
19448;SDS011;9863;49.404;8.246;2022-10-18T18:03:02;738.50;;;698.08;;
19448;SDS011;9863;49.404;8.246;2022-10-18T18:05:51;735.65;;;695.72;;
19448;SDS011;9863;49.404;8.246;2022-10-18T18:08:39;734.90;;;694.67;;
19448;SDS011;9863;49.404;8.246;2022-10-18T18:11:27;725.58;;;685.80;;
19448;SDS011;9863;49.404;8.246;2022-10-18T18:14:15;730.22;;;689.55;;
19448;SDS011;9863;49.404;8.246;2022-10-18T18:17:04;732.92;;;692.25;;
19448;SDS011;9863;49.404;8.246;2022-10-18T18:19:52;735.58;;;694.92;;
19448;SDS011;9863;49.404;8.246;2022-10-18T18:22:40;731.90;;;691.65;;
19448;SDS011;9863;49.404;8.246;2022-10-18T18:25:29;716.42;;;677.28;;
19448;SDS011;9863;49.404;8.246;2022-10-18T18:28:17;733.08;;;691.92;;
19448;SDS011;9863;49.404;8.246;2022-10-18T18:31:15;720.30;;;680.67;;
19448;SDS011;9863;49.404;8.246;2022-10-18T18:34:09;716.22;;;676.83;;
19448;SDS011;9863;49.404;8.246;2022-10-18T18:36:58;720.33;;;679.60;;
19448;SDS011;9863;49.404;8.246;2022-10-18T18:39:46;707.20;;;667.78;;
19448;SDS011;9863;49.404;8.246;2022-10-18T18:42:34;702.22;;;663.47;;
19448;SDS011;9863;49.404;8.246;2022-10-18T18:45:22;714.42;;;674.95;;
19448;SDS011;9863;49.404;8.246;2022-10-18T18:48:11;712.03;;;673.55;;
19448;SDS011;9863;49.404;8.246;2022-10-18T18:51:07;708.15;;;669.20;;
19448;SDS011;9863;49.404;8.246;2022-10-18T18:54:01;706.58;;;667.55;;
19448;SDS011;9863;49.404;8.246;2022-10-18T18:56:51;706.15;;;667.75;;
19448;SDS011;9863;49.404;8.246;2022-10-18T18:59:39;703.63;;;664.95;;
19448;SDS011;9863;49.404;8.246;2022-10-18T19:02:27;709.00;;;670.30;;
19448;SDS011;9863;49.404;8.246;2022-10-18T19:05:15;705.83;;;666.65;;
19448;SDS011;9863;49.404;8.246;2022-10-18T19:08:04;691.65;;;654.13;;
19448;SDS011;9863;49.404;8.246;2022-10-18T19:10:52;700.47;;;662.85;;
19448;SDS011;9863;49.404;8.246;2022-10-18T19:13:41;708.65;;;669.88;;
19448;SDS011;9863;49.404;8.246;2022-10-18T19:16:33;693.72;;;655.90;;
19448;SDS011;9863;49.404;8.246;2022-10-18T19:19:22;698.80;;;660.22;;
19448;SDS011;9863;49.404;8.246;2022-10-18T19:22:13;705.08;;;666.42;;
19448;SDS011;9863;49.404;8.246;2022-10-18T19:25:01;713.10;;;674.30;;
19448;SDS011;9863;49.404;8.246;2022-10-18T19:27:50;709.17;;;669.67;;
19448;SDS011;9863;49.404;8.246;2022-10-18T19:30:38;707.17;;;668.13;;
19448;SDS011;9863;49.404;8.246;2022-10-18T19:33:26;704.30;;;665.08;;
19448;SDS011;9863;49.404;8.246;2022-10-18T19:36:34;704.40;;;665.20;;
19448;SDS011;9863;49.404;8.246;2022-10-18T19:39:25;702.70;;;663.58;;
19448;SDS011;9863;49.404;8.246;2022-10-18T19:42:15;710.75;;;670.72;;
19448;SDS011;9863;49.404;8.246;2022-10-18T19:45:12;707.58;;;667.88;;